Time;durP1;ratioP1;P1;durP2;ratioP2;P2;SDS_P1;SDS_P2;PMS_P1;PMS_P2;Temp;Humidity;BMP_temperature;BMP_pressure;BME280_temperature;BME280_humidity;BME280_pressure;Samples;Min_cycle;Max_cycle;Signal;HPM_P1;HPM_P2
2024/02/03 00:00:38;;;;;;;2.90;1.48;;;;;;;1.50;100.00;94241.06;2097530;28;20028;-82
2024/02/03 00:01:39;;;;;;;2.25;1.10;;;;;;;1.44;100.00;94245.78;2098038;28;20082;-83
2024/02/03 00:02:40;;;;;;;1.15;0.90;;;;;;;1.30;100.00;94245.34;2109552;28;20027;-81
2024/02/03 00:03:41;;;;;;;1.75;1.30;;;;;;;1.46;100.00;94243.59;2101832;28;20112;-82
2024/02/03 00:04:42;;;;;;;1.20;1.00;;;;;;;1.48;100.00;94251.16;2096600;28;20583;-81
2024/02/03 00:05:44;;;;;;;1.20;1.10;;;;;;;1.71;100.00;94248.84;2091377;28;20107;-80
2024/02/03 00:06:45;;;;;;;1.35;0.90;;;;;;;1.58;100.00;94250.75;2093974;28;20433;-82
2024/02/03 00:07:46;;;;;;;2.38;1.15;;;;;;;1.44;100.00;94250.28;2105208;28;20082;-81
2024/02/03 00:08:47;;;;;;;2.90;1.00;;;;;;;1.41;100.00;94243.06;2113571;28;20420;-80
2024/02/03 00:09:48;;;;;;;2.15;1.10;;;;;;;1.27;100.00;94253.88;2102192;28;20035;-81
2024/02/03 00:10:49;;;;;;;2.22;1.42;;;;;;;1.39;100.00;94253.91;2095466;28;20032;-83
2024/02/03 00:11:50;;;;;;;2.05;1.30;;;;;;;1.35;100.00;94254.88;2096724;28;20047;-83
2024/02/03 00:12:51;;;;;;;2.15;1.30;;;;;;;1.22;100.00;94262.00;2095636;28;20028;-82
2024/02/03 00:13:52;;;;;;;1.42;1.33;;;;;;;1.26;100.00;94260.25;2097026;28;20760;-81
2024/02/03 00:14:53;;;;;;;2.22;1.23;;;;;;;1.17;100.00;94262.22;2102890;28;20059;-82
2024/02/03 00:15:54;;;;;;;1.63;1.23;;;;;;;1.14;100.00;94262.88;2096483;28;20028;-81
2024/02/03 00:16:55;;;;;;;1.20;1.10;;;;;;;1.17;100.00;94264.88;2088601;28;20044;-81
2024/02/03 00:17:56;;;;;;;1.52;1.00;;;;;;;1.14;100.00;94258.41;2086811;28;20866;-82
2024/02/03 00:18:57;;;;;;;1.92;1.35;;;;;;;1.00;100.00;94261.31;2089369;28;20056;-81
2024/02/03 00:19:58;;;;;;;1.40;1.00;;;;;;;0.98;100.00;94263.53;2106414;28;20027;-81
2024/02/03 00:20:59;;;;;;;1.35;1.20;;;;;;;0.95;100.00;94251.00;2104245;28;20016;-82
2024/02/03 00:21:59;;;;;;;1.30;1.00;;;;;;;0.93;100.00;94260.34;2093559;28;20190;-82
2024/02/03 00:23:00;;;;;;;1.30;1.10;;;;;;;0.93;100.00;94262.97;2103183;28;20055;-82
2024/02/03 00:24:02;;;;;;;1.38;1.00;;;;;;;0.93;100.00;94258.47;2106466;28;20028;-82
2024/02/03 00:25:03;;;;;;;1.85;0.90;;;;;;;0.89;100.00;94256.81;2089299;28;20051;-83
2024/02/03 00:26:04;;;;;;;2.78;0.95;;;;;;;0.86;100.00;94255.59;2088179;28;20041;-82
2024/02/03 00:27:05;;;;;;;1.10;0.90;;;;;;;0.90;100.00;94256.47;2104996;28;20097;-82
2024/02/03 00:28:06;;;;;;;1.02;0.93;;;;;;;0.92;100.00;94256.16;2113347;28;20718;-83
2024/02/03 00:29:07;;;;;;;2.97;1.20;;;;;;;0.97;100.00;94256.72;2097949;28;20120;-83
2024/02/03 00:30:08;;;;;;;0.98;0.88;;;;;;;0.93;100.00;94255.84;2090094;28;20035;-81
2024/02/03 00:31:09;;;;;;;1.35;1.02;;;;;;;0.97;100.00;94250.69;2098094;28;20013;-83
2024/02/03 00:32:12;;;;;;;1.83;0.93;;;;;;;1.03;100.00;94245.97;2102057;28;20114;-82
2024/02/03 00:33:13;;;;;;;1.10;1.00;;;;;;;1.03;100.00;94243.34;2105431;28;20072;-81
2024/02/03 00:34:13;;;;;;;2.15;1.33;;;;;;;1.03;100.00;94251.25;2085995;27;20134;-83
2024/02/03 00:35:15;;;;;;;1.00;0.90;;;;;;;0.92;100.00;94235.88;2028681;28;20032;-81
2024/02/03 00:36:22;;;;;;;1.38;1.10;;;;;;;0.90;100.00;94235.44;2028371;28;20822;-81
2024/02/03 00:37:23;;;;;;;1.00;0.90;;;;;;;0.98;100.00;94231.94;2034569;28;20110;-80
2024/02/03 00:38:24;;;;;;;2.03;0.88;;;;;;;1.03;100.00;94230.94;2038869;28;20132;-83
2024/02/03 00:39:26;;;;;;;2.25;1.02;;;;;;;0.98;100.00;94224.03;2042305;28;22860;-80
2024/02/03 00:40:27;;;;;;;2.15;1.00;;;;;;;0.99;100.00;94224.81;2039302;28;20477;-83
2024/02/03 00:41:28;;;;;;;1.55;1.20;;;;;;;0.93;100.00;94223.50;2036877;28;20032;-80
2024/02/03 00:42:29;;;;;;;1.17;1.08;;;;;;;0.91;100.00;94215.91;2066222;28;20028;-82
2024/02/03 00:43:30;;;;;;;1.08;0.98;;;;;;;0.96;100.00;94214.91;2076409;28;20027;-82
2024/02/03 00:44:31;;;;;;;1.50;1.30;;;;;;;1.16;100.00;94208.81;2076420;28;21073;-81
2024/02/03 00:45:32;;;;;;;1.05;0.95;;;;;;;1.11;100.00;94216.16;2081278;28;20452;-83
2024/02/03 00:46:33;;;;;;;1.00;1.00;;;;;;;1.10;100.00;94218.03;2098252;28;20667;-81
2024/02/03 00:47:34;;;;;;;1.33;0.95;;;;;;;1.08;100.00;94211.53;2095751;28;20396;-82
2024/02/03 00:48:35;;;;;;;1.88;1.33;;;;;;;1.08;100.00;94206.28;2097498;28;20504;-82
2024/02/03 00:49:36;;;;;;;1.40;1.10;;;;;;;1.14;100.00;94210.22;2097260;28;20044;-80
2024/02/03 00:50:37;;;;;;;2.05;0.95;;;;;;;0.96;100.00;94207.78;2096949;28;20024;-82
2024/02/03 00:51:38;;;;;;;1.08;0.90;;;;;;;0.96;100.00;94207.03;2094811;28;20114;-82
2024/02/03 00:52:39;;;;;;;2.75;1.35;;;;;;;0.89;100.00;94210.22;2094553;28;20063;-83
2024/02/03 00:53:41;;;;;;;2.20;1.00;;;;;;;1.00;100.00;94210.53;2102840;28;20142;-81
2024/02/03 00:54:42;;;;;;;1.20;0.93;;;;;;;0.88;100.00;94215.78;2100934;28;20032;-83
2024/02/03 00:55:43;;;;;;;2.65;0.90;;;;;;;0.89;100.00;94215.47;2104711;28;20039;-83
2024/02/03 00:56:44;;;;;;;1.52;0.90;;;;;;;0.95;100.00;94216.03;2096727;28;20052;-82
2024/02/03 00:57:45;;;;;;;1.05;0.80;;;;;;;0.91;100.00;94217.75;2095184;28;20029;-82
2024/02/03 00:58:46;;;;;;;1.20;1.05;;;;;;;0.84;100.00;94213.06;2104996;28;20326;-81
2024/02/03 00:59:47;;;;;;;1.70;1.20;;;;;;;0.85;100.00;94209.31;2095620;28;20039;-83
2024/02/03 01:00:48;;;;;;;1.63;1.20;;;;;;;0.72;100.00;94213.78;2103770;28;20029;-83
2024/02/03 01:01:49;;;;;;;1.33;0.90;;;;;;;0.68;100.00;94210.28;2112054;28;20020;-83
2024/02/03 01:02:50;;;;;;;2.47;1.08;;;;;;;0.71;100.00;94207.00;2103338;28;20019;-83
2024/02/03 01:03:51;;;;;;;0.70;0.70;;;;;;;0.76;100.00;94206.03;2095812;28;20454;-81
2024/02/03 01:04:52;;;;;;;1.38;0.90;;;;;;;0.79;100.00;94205.38;2095021;28;20040;-82
2024/02/03 01:05:53;;;;;;;1.00;0.90;;;;;;;0.78;100.00;94205.69;2095728;28;20025;-83
2024/02/03 01:06:58;;;;;;;1.10;0.95;;;;;;;0.74;100.00;94206.31;2095471;28;20087;-83
2024/02/03 01:07:59;;;;;;;1.30;1.20;;;;;;;0.66;100.00;94206.41;2097828;28;20475;-84
2024/02/03 01:09:00;;;;;;;1.13;0.82;;;;;;;0.78;100.00;94209.09;2104398;28;20043;-81
2024/02/03 01:10:01;;;;;;;1.20;0.80;;;;;;;0.75;100.00;94204.50;2107536;28;20019;-83
2024/02/03 01:11:02;;;;;;;1.50;1.10;;;;;;;0.68;100.00;94206.88;2007152;28;20039;-83
2024/02/03 01:12:03;;;;;;;1.58;1.30;;;;;;;0.68;100.00;94197.13;2013407;28;20082;-83
2024/02/03 01:13:04;;;;;;;1.00;0.80;;;;;;;0.74;100.00;94197.66;2025360;28;20482;-81
2024/02/03 01:14:05;;;;;;;1.52;1.02;;;;;;;0.67;100.00;94202.72;2018838;28;20036;-83
2024/02/03 01:15:06;;;;;;;1.23;1.00;;;;;;;0.65;100.00;94197.00;2031137;28;20163;-81
2024/02/03 01:16:07;;;;;;;1.15;1.00;;;;;;;0.72;100.00;94202.50;2041697;28;20044;-82
2024/02/03 01:17:08;;;;;;;1.10;1.00;;;;;;;0.70;100.00;94202.03;2046948;28;20032;-82
2024/02/03 01:18:10;;;;;;;0.93;0.90;;;;;;;0.62;100.00;94201.06;2062017;28;20133;-82
2024/02/03 01:19:12;;;;;;;1.48;1.00;;;;;;;0.54;100.00;94198.53;2070325;28;20046;-80
2024/02/03 01:20:13;;;;;;;1.45;1.20;;;;;;;0.58;100.00;94202.03;2084352;28;20030;-81
2024/02/03 01:21:18;;;;;;;2.72;0.98;;;;;;;0.65;100.00;94205.66;2086369;28;20031;-80
2024/02/03 01:22:19;;;;;;;1.30;1.05;;;;;;;0.59;100.00;94211.47;2092954;28;20046;-83
2024/02/03 01:23:20;;;;;;;1.05;0.98;;;;;;;0.55;100.00;94205.31;2090492;28;20036;-81
2024/02/03 01:24:21;;;;;;;1.35;1.25;;;;;;;0.53;100.00;94212.75;2096767;28;20023;-83
2024/02/03 01:25:21;;;;;;;2.28;1.30;;;;;;;0.60;100.00;94207.72;2104199;28;20036;-84
2024/02/03 01:26:23;;;;;;;1.00;0.90;;;;;;;0.61;100.00;94211.88;2101108;28;20048;-83
2024/02/03 01:27:24;;;;;;;1.52;0.90;;;;;;;0.65;100.00;94218.81;2113931;28;20019;-82
2024/02/03 01:28:25;;;;;;;0.90;0.90;;;;;;;0.50;100.00;94217.56;2112313;28;20150;-83
2024/02/03 01:29:25;;;;;;;1.42;0.93;;;;;;;0.48;100.00;94214.50;2094096;28;20482;-83
2024/02/03 01:30:26;;;;;;;1.17;1.08;;;;;;;0.39;100.00;94216.44;2096347;28;20484;-81
2024/02/03 01:31:27;;;;;;;1.15;0.90;;;;;;;0.36;100.00;94206.56;2095582;28;20051;-83
2024/02/03 01:32:28;;;;;;;2.38;1.00;;;;;;;0.49;100.00;94216.03;2098189;28;20020;-82
2024/02/03 01:33:31;;;;;;;1.50;1.10;;;;;;;0.42;100.00;94215.03;2095774;28;20034;-81
2024/02/03 01:34:32;;;;;;;1.05;0.95;;;;;;;0.49;100.00;94212.66;2097709;28;20032;-82
2024/02/03 01:35:33;;;;;;;1.10;1.00;;;;;;;0.47;100.00;94207.69;2095789;28;20021;-81
2024/02/03 01:36:34;;;;;;;1.05;0.95;;;;;;;0.52;100.00;94213.84;2113011;28;20076;-83
2024/02/03 01:37:36;;;;;;;1.63;1.08;;;;;;;0.52;100.00;94222.50;2112794;28;20529;-81
2024/02/03 01:38:37;;;;;;;1.42;1.23;;;;;;;0.55;100.00;94213.19;2103318;28;20032;-83
2024/02/03 01:39:38;;;;;;;1.45;1.00;;;;;;;0.72;100.00;94215.66;2097184;28;20787;-80
2024/02/03 01:40:39;;;;;;;1.17;0.95;;;;;;;0.70;100.00;94209.94;2105186;28;20582;-83
2024/02/03 01:41:42;;;;;;;1.60;1.08;;;;;;;0.61;100.00;94211.88;2104605;28;20521;-81
2024/02/03 01:42:43;;;;;;;1.23;1.13;;;;;;;0.40;100.00;94210.09;2095240;28;20447;-82
2024/02/03 01:43:47;;;;;;;1.00;0.90;;;;;;;0.41;100.00;94211.63;2106022;28;20034;-83
2024/02/03 01:44:47;;;;;;;1.38;1.00;;;;;;;0.54;100.00;94211.66;2116256;27;20032;-85
2024/02/03 01:45:50;;;;;;;0.90;0.90;;;;;;;0.43;100.00;94206.81;2105604;28;20179;-84
2024/02/03 01:46:51;;;;;;;0.88;0.88;;;;;;;0.43;100.00;94206.03;2113469;27;20028;-83
2024/02/03 01:47:52;;;;;;;0.93;0.90;;;;;;;0.29;100.00;94198.44;2105989;28;20032;-83
2024/02/03 01:48:53;;;;;;;0.93;0.90;;;;;;;0.32;100.00;94205.69;2105086;28;20027;-82
2024/02/03 01:49:54;;;;;;;3.45;0.80;;;;;;;0.31;100.00;94204.16;2113611;28;20016;-82
2024/02/03 01:50:55;;;;;;;1.30;0.93;;;;;;;0.36;100.00;94216.31;2105252;28;20022;-81
2024/02/03 01:51:57;;;;;;;1.38;1.20;;;;;;;0.46;100.00;94208.03;2105640;28;20016;-85
2024/02/03 01:52:58;;;;;;;0.85;0.85;;;;;;;0.45;100.00;94220.41;2104540;28;20052;-81
2024/02/03 01:54:00;;;;;;;0.90;0.88;;;;;;;0.42;100.00;94210.53;2090101;28;20075;-83
2024/02/03 01:55:01;;;;;;;0.82;0.70;;;;;;;0.41;100.00;94209.00;2088666;28;20132;-85
2024/02/03 01:56:03;;;;;;;0.80;0.70;;;;;;;0.45;100.00;94209.88;2106294;28;20032;-83
2024/02/03 01:57:05;;;;;;;0.82;0.70;;;;;;;0.41;100.00;94213.50;2112435;28;20012;-80
2024/02/03 01:58:06;;;;;;;0.98;0.70;;;;;;;0.28;100.00;94207.41;2097407;28;20062;-82
2024/02/03 01:59:07;;;;;;;0.93;0.80;;;;;;;0.23;100.00;94203.13;2095511;28;20630;-83
2024/02/03 02:00:10;;;;;;;0.88;0.75;;;;;;;0.31;100.00;94209.41;2098764;28;20503;-82
2024/02/03 02:01:12;;;;;;;0.90;0.65;;;;;;;0.29;100.00;94208.94;2105555;28;20452;-83
2024/02/03 02:02:12;;;;;;;1.20;0.90;;;;;;;0.22;100.00;94212.13;2095584;28;20464;-82
2024/02/03 02:03:14;;;;;;;0.75;0.70;;;;;;;0.16;100.00;94210.75;2086490;28;20017;-84
2024/02/03 02:04:15;;;;;;;3.60;0.90;;;;;;;0.15;100.00;94208.47;2095907;28;20052;-82
2024/02/03 02:05:16;;;;;;;0.98;0.90;;;;;;;0.16;100.00;94207.38;2102249;28;20302;-83
2024/02/03 02:06:17;;;;;;;0.88;0.80;;;;;;;0.16;100.00;94208.13;2102200;28;20038;-81
2024/02/03 02:07:20;;;;;;;1.48;0.70;;;;;;;0.26;100.00;94201.69;2103908;28;20024;-83
2024/02/03 02:08:38;;;;;;;1.67;0.80;;;;;;;0.18;100.00;94198.06;2097505;28;20031;-80
2024/02/03 02:09:39;;;;;;;0.85;0.70;;;;;;;0.23;100.00;94197.88;2107912;28;20410;-82
2024/02/03 02:10:40;;;;;;;1.70;1.00;;;;;;;0.25;100.00;94200.94;2102824;28;20028;-82
2024/02/03 02:11:41;;;;;;;0.90;0.80;;;;;;;0.35;100.00;94205.03;2110938;28;20011;-83
2024/02/03 02:12:42;;;;;;;1.30;1.00;;;;;;;0.40;100.00;94202.22;2112174;28;20029;-83
2024/02/03 02:13:43;;;;;;;0.98;0.80;;;;;;;0.42;100.00;94192.13;2104471;28;20031;-83
2024/02/03 02:14:44;;;;;;;1.20;1.00;;;;;;;0.41;100.00;94206.38;2105646;28;20035;-84
2024/02/03 02:15:45;;;;;;;0.82;0.80;;;;;;;0.27;100.00;94194.59;2111353;28;20027;-84
2024/02/03 02:16:46;;;;;;;1.08;0.88;;;;;;;0.39;100.00;94195.38;2104714;28;20023;-83
2024/02/03 02:17:48;;;;;;;3.42;1.15;;;;;;;0.42;100.00;94191.34;2113312;28;20064;-84
2024/02/03 02:18:50;;;;;;;1.00;0.90;;;;;;;0.38;100.00;94193.09;2115212;27;20023;-83
2024/02/03 02:19:53;;;;;;;1.02;0.93;;;;;;;0.43;100.00;94192.88;2104526;28;20024;-84
2024/02/03 02:20:54;;;;;;;1.42;1.15;;;;;;;0.47;100.00;94199.03;2097739;28;20021;-83
2024/02/03 02:21:55;;;;;;;1.25;1.00;;;;;;;0.34;100.00;94192.97;2099104;28;20020;-84
2024/02/03 02:22:56;;;;;;;1.08;0.98;;;;;;;0.39;100.00;94192.00;2086013;28;20116;-83
2024/02/03 02:23:57;;;;;;;1.00;0.80;;;;;;;0.39;100.00;94187.50;2100692;28;20016;-82
2024/02/03 02:26:18;;;;;;;1.52;1.10;;;;;;;-0.61;100.00;94180.59;2135752;27;20649;-83
2024/02/03 02:27:19;;;;;;;0.93;0.80;;;;;;;-0.57;100.00;94182.25;2129580;27;20068;-83
2024/02/03 02:28:20;;;;;;;1.90;1.00;;;;;;;-0.58;100.00;94183.31;2111740;28;20024;-85
2024/02/03 02:29:21;;;;;;;1.50;0.90;;;;;;;-0.52;100.00;94184.69;2113057;28;20119;-81
2024/02/03 02:30:21;;;;;;;3.42;0.93;;;;;;;-0.58;100.00;94177.31;2118908;27;20492;-83
2024/02/03 02:31:22;;;;;;;1.10;1.00;;;;;;;-0.60;100.00;94177.63;2112338;28;20484;-84
2024/02/03 02:32:23;;;;;;;1.15;0.88;;;;;;;-0.60;100.00;94179.50;2104687;28;20020;-84
2024/02/03 02:33:24;;;;;;;1.00;0.85;;;;;;;-0.53;100.00;94175.28;2110520;28;20043;-85
2024/02/03 02:34:25;;;;;;;1.10;0.90;;;;;;;-0.55;100.00;94172.19;2112711;27;20982;-83
2024/02/03 02:35:26;;;;;;;1.65;0.80;;;;;;;-0.46;100.00;94164.25;2129071;27;20019;-84
2024/02/03 02:36:27;;;;;;;0.93;0.80;;;;;;;-0.50;100.00;94163.34;2125598;27;20026;-85
2024/02/03 02:37:29;;;;;;;0.70;0.70;;;;;;;-0.60;100.00;94161.88;2118884;28;20116;-82
2024/02/03 02:38:30;;;;;;;0.77;0.77;;;;;;;-0.61;100.00;94165.59;2105452;28;20016;-81
2024/02/03 02:39:31;;;;;;;0.90;0.85;;;;;;;-0.67;100.00;94164.22;2111983;28;20054;-83
2024/02/03 02:40:32;;;;;;;1.00;0.90;;;;;;;-0.64;100.00;94160.22;2107522;28;20189;-81
2024/02/03 02:41:33;;;;;;;0.70;0.70;;;;;;;-0.64;100.00;94173.34;2112658;28;20039;-83
2024/02/03 02:42:34;;;;;;;0.77;0.70;;;;;;;-0.59;100.00;94175.78;2092495;28;20040;-85
2024/02/03 02:43:35;;;;;;;1.35;0.88;;;;;;;-0.55;100.00;94168.81;2095629;28;20167;-80
2024/02/03 02:44:36;;;;;;;1.13;0.82;;;;;;;-0.62;100.00;94164.03;2095031;28;20024;-84
2024/02/03 02:45:37;;;;;;;1.00;0.90;;;;;;;-0.60;100.00;94169.75;2110727;28;20553;-86
2024/02/03 02:46:38;;;;;;;1.27;0.90;;;;;;;-0.51;100.00;94165.22;2119946;28;20130;-81
2024/02/03 02:47:39;;;;;;;1.13;0.90;;;;;;;-0.58;100.00;94167.56;2104512;28;20075;-84
2024/02/03 02:48:40;;;;;;;0.70;0.70;;;;;;;-0.58;100.00;94167.56;2105496;28;20075;-83
2024/02/03 02:49:41;;;;;;;1.00;0.82;;;;;;;-0.66;100.00;94165.78;2101530;28;20062;-82
2024/02/03 02:50:42;;;;;;;0.98;0.90;;;;;;;-0.61;100.00;94157.72;2106515;28;20028;-83
2024/02/03 02:51:43;;;;;;;1.00;0.80;;;;;;;-0.73;100.00;94156.88;2111779;27;20019;-82
2024/02/03 02:52:44;;;;;;;1.05;0.95;;;;;;;-0.77;100.00;94159.38;2112599;28;20062;-84
2024/02/03 02:53:45;;;;;;;1.00;0.90;;;;;;;-0.72;100.00;94156.53;2120980;28;20022;-83
2024/02/03 02:54:45;;;;;;;0.75;0.75;;;;;;;-0.71;100.00;94160.69;2126026;27;20071;-84
2024/02/03 02:55:46;;;;;;;0.77;0.70;;;;;;;-0.73;100.00;94144.50;2118744;28;20020;-83
2024/02/03 02:56:47;;;;;;;1.08;0.88;;;;;;;-0.84;100.00;94153.84;2106606;28;20080;-82
2024/02/03 02:57:48;;;;;;;1.10;1.02;;;;;;;-0.56;100.00;94154.91;2108552;28;20059;-81
2024/02/03 02:58:49;;;;;;;0.80;0.80;;;;;;;-0.59;100.00;94145.03;2112095;28;20028;-82
2024/02/03 02:59:50;;;;;;;1.00;0.80;;;;;;;-0.58;100.00;94145.81;2116341;28;20024;-83
2024/02/03 03:00:51;;;;;;;0.85;0.80;;;;;;;-0.59;100.00;94146.91;2114954;28;20396;-83
2024/02/03 03:01:52;;;;;;;1.27;0.80;;;;;;;-0.58;100.00;94143.94;2112936;28;20053;-83
2024/02/03 03:02:53;;;;;;;0.60;0.60;;;;;;;-0.54;100.00;94136.97;2105479;28;20881;-83
2024/02/03 03:03:55;;;;;;;0.80;0.70;;;;;;;-0.54;100.00;94149.31;2103425;28;20408;-84
2024/02/03 03:04:56;;;;;;;1.00;0.90;;;;;;;-0.54;100.00;94144.06;2102103;28;20020;-84
2024/02/03 03:05:57;;;;;;;0.70;0.70;;;;;;;-0.58;100.00;94137.94;2096400;28;20415;-83
2024/02/03 03:06:58;;;;;;;0.75;0.70;;;;;;;-0.63;100.00;94141.50;2109460;28;20024;-84
2024/02/03 03:07:59;;;;;;;0.60;0.60;;;;;;;-0.71;100.00;94139.69;2122964;27;20471;-84
2024/02/03 03:09:01;;;;;;;1.02;0.90;;;;;;;-0.72;100.00;94137.41;2119931;27;20513;-83
2024/02/03 03:10:02;;;;;;;0.73;0.73;;;;;;;-0.73;100.00;94143.75;2106272;28;20044;-84
2024/02/03 03:11:03;;;;;;;1.63;0.65;;;;;;;-0.84;100.00;94138.84;2094201;28;20028;-82
2024/02/03 03:12:04;;;;;;;1.30;1.05;;;;;;;-0.93;100.00;94138.13;2092117;28;20035;-85
2024/02/03 03:13:05;;;;;;;0.88;0.60;;;;;;;-0.86;100.00;94141.03;2104237;28;20020;-83
2024/02/03 03:14:06;;;;;;;0.80;0.50;;;;;;;-0.82;100.00;94146.44;2109269;28;20031;-82
2024/02/03 03:15:08;;;;;;;0.70;0.70;;;;;;;-0.77;100.00;94144.38;2112207;28;20016;-84
2024/02/03 03:16:09;;;;;;;1.75;0.80;;;;;;;-0.73;100.00;94141.88;2117496;28;20024;-83
2024/02/03 03:17:10;;;;;;;0.63;0.63;;;;;;;-0.64;100.00;94134.72;2120931;28;20166;-83
2024/02/03 03:18:11;;;;;;;1.75;0.65;;;;;;;-0.74;100.00;94132.50;2120830;28;20051;-82
2024/02/03 03:19:12;;;;;;;0.68;0.68;;;;;;;-0.51;100.00;94140.81;2117341;28;20527;-84
2024/02/03 03:20:13;;;;;;;0.55;0.50;;;;;;;-0.60;100.00;94142.75;2103757;28;20086;-85
2024/02/03 03:21:17;;;;;;;0.52;0.52;;;;;;;-0.73;100.00;94130.63;2106988;28;20020;-82
2024/02/03 03:22:18;;;;;;;0.95;0.60;;;;;;;-0.65;100.00;94135.81;2105442;28;20032;-81
2024/02/03 03:23:19;;;;;;;0.60;0.60;;;;;;;-0.68;100.00;94133.06;2102141;28;20017;-84
2024/02/03 03:24:20;;;;;;;0.85;0.80;;;;;;;-0.72;100.00;94127.69;2117559;28;20523;-82
2024/02/03 03:25:21;;;;;;;0.50;0.50;;;;;;;-0.51;100.00;94132.94;2108953;28;20031;-83
2024/02/03 03:26:22;;;;;;;0.75;0.65;;;;;;;-0.58;100.00;94135.31;2104696;28;20035;-84
2024/02/03 03:27:23;;;;;;;0.60;0.60;;;;;;;-0.54;100.00;94136.97;2113445;28;20105;-85
2024/02/03 03:28:24;;;;;;;0.90;0.73;;;;;;;-0.57;100.00;94136.81;2109797;28;20465;-83
2024/02/03 03:29:25;;;;;;;0.77;0.68;;;;;;;-0.63;100.00;94136.25;2112481;28;20793;-83
2024/02/03 03:30:26;;;;;;;2.47;0.70;;;;;;;-0.59;100.00;94136.41;2108029;28;20024;-83
2024/02/03 03:31:27;;;;;;;0.70;0.70;;;;;;;-0.63;100.00;94132.88;2109084;28;20019;-86
2024/02/03 03:32:28;;;;;;;0.60;0.60;;;;;;;-0.57;100.00;94134.19;2116513;27;20038;-83
2024/02/03 03:33:29;;;;;;;0.88;0.70;;;;;;;-0.59;100.00;94133.78;2115355;28;20069;-82
2024/02/03 03:34:30;;;;;;;2.03;0.82;;;;;;;-0.54;100.00;94141.44;2095501;28;20021;-82
2024/02/03 03:35:31;;;;;;;2.13;0.80;;;;;;;-0.63;100.00;94136.25;2094598;28;20031;-83
2024/02/03 03:36:32;;;;;;;0.68;0.68;;;;;;;-0.60;100.00;94134.88;2110808;28;20027;-81
2024/02/03 03:37:33;;;;;;;0.70;0.70;;;;;;;-0.55;100.00;94132.03;2112775;28;20076;-82
2024/02/03 03:38:42;;;;;;;0.88;0.80;;;;;;;-0.71;100.00;94134.44;2094688;28;20025;-84
2024/02/03 03:39:43;;;;;;;0.75;0.75;;;;;;;-0.55;100.00;94135.44;2094189;28;20059;-84
2024/02/03 03:40:44;;;;;;;1.10;1.00;;;;;;;-0.52;100.00;94132.19;2084960;28;20039;-83
2024/02/03 03:41:45;;;;;;;1.00;0.80;;;;;;;-0.55;100.00;94134.66;2089985;28;20493;-84
2024/02/03 03:42:47;;;;;;;0.55;0.55;;;;;;;-0.52;100.00;94137.44;2097473;28;20029;-83
2024/02/03 03:43:49;;;;;;;0.70;0.70;;;;;;;-0.38;100.00;94133.78;2097037;28;20032;-83
2024/02/03 03:44:50;;;;;;;1.00;0.63;;;;;;;-0.58;100.00;94137.94;2095276;28;20035;-84
2024/02/03 03:45:51;;;;;;;1.48;0.80;;;;;;;-0.55;100.00;94138.06;2110362;28;20020;-84
2024/02/03 03:46:54;;;;;;;0.73;0.63;;;;;;;-0.66;100.00;94138.75;2112745;28;20027;-85
2024/02/03 03:47:57;;;;;;;0.73;0.70;;;;;;;-0.66;100.00;94139.53;2100817;28;20114;-80
2024/02/03 03:48:58;;;;;;;0.60;0.60;;;;;;;-0.62;100.00;94132.53;2103596;28;20039;-82
2024/02/03 03:49:59;;;;;;;0.85;0.85;;;;;;;-0.70;100.00;94138.63;2096117;28;20506;-82
2024/02/03 03:51:00;;;;;;;0.55;0.55;;;;;;;-0.63;100.00;94133.63;2092261;28;20049;-83
2024/02/03 03:52:01;;;;;;;0.63;0.63;;;;;;;-0.63;100.00;94138.13;2089773;28;20476;-81
2024/02/03 03:53:02;;;;;;;0.60;0.60;;;;;;;-0.60;100.00;94135.63;2090598;28;20106;-82
2024/02/03 03:54:03;;;;;;;0.77;0.60;;;;;;;-0.66;100.00;94139.53;2097467;28;20021;-82
2024/02/03 03:55:04;;;;;;;1.00;0.73;;;;;;;-0.55;100.00;94145.16;2097225;28;20033;-83
2024/02/03 03:56:06;;;;;;;0.65;0.65;;;;;;;-0.46;100.00;94139.84;2095709;28;20012;-84
2024/02/03 03:57:07;;;;;;;0.40;0.40;;;;;;;-0.56;100.00;94136.53;2095287;28;20024;-84
2024/02/03 03:58:08;;;;;;;1.17;0.70;;;;;;;-0.63;100.00;94140.75;2098223;28;20119;-82
2024/02/03 03:59:09;;;;;;;1.02;0.70;;;;;;;-0.58;100.00;94132.66;2095024;28;20477;-83
2024/02/03 04:00:12;;;;;;;0.50;0.50;;;;;;;-0.62;100.00;94134.41;2094861;28;20623;-84
2024/02/03 04:01:13;;;;;;;0.75;0.70;;;;;;;-0.58;100.00;94130.81;2091958;28;20043;-84
2024/02/03 04:02:14;;;;;;;2.17;0.55;;;;;;;-0.55;100.00;94122.31;2091192;28;20024;-84
2024/02/03 04:03:15;;;;;;;0.60;0.60;;;;;;;-0.49;100.00;94128.13;2098559;28;20073;-84
2024/02/03 04:04:17;;;;;;;0.70;0.70;;;;;;;-0.58;100.00;94130.81;2117854;27;20062;-83
2024/02/03 04:05:18;;;;;;;0.50;0.50;;;;;;;-0.60;100.00;94125.13;2111347;28;20060;-85
2024/02/03 04:06:19;;;;;;;0.55;0.50;;;;;;;-0.68;100.00;94133.06;2114850;28;20018;-82
2024/02/03 04:07:20;;;;;;;0.68;0.52;;;;;;;-0.63;100.00;94125.75;2111153;28;20020;-83
2024/02/03 04:08:21;;;;;;;0.60;0.60;;;;;;;-0.61;100.00;94130.72;2119517;27;20023;-81
2024/02/03 04:09:22;;;;;;;1.02;0.65;;;;;;;-0.61;100.00;94133.34;2121247;27;20106;-83
2024/02/03 04:10:23;;;;;;;0.80;0.77;;;;;;;-0.57;100.00;94139.47;2110883;28;20030;-83
2024/02/03 04:11:24;;;;;;;0.60;0.60;;;;;;;-0.60;100.00;94130.38;2095769;28;20040;-84
2024/02/03 04:12:25;;;;;;;0.80;0.73;;;;;;;-0.61;100.00;94139.34;2102960;28;20047;-82
2024/02/03 04:13:26;;;;;;;1.02;0.77;;;;;;;-0.66;100.00;94131.66;2103981;28;20814;-83
2024/02/03 04:14:27;;;;;;;0.90;0.80;;;;;;;-0.50;100.00;94134.47;2104656;28;20973;-84
2024/02/03 04:15:29;;;;;;;0.77;0.70;;;;;;;-0.52;100.00;94134.81;2095724;28;20024;-83
2024/02/03 04:16:29;;;;;;;0.65;0.60;;;;;;;-0.41;100.00;94134.41;2086065;28;20745;-83
2024/02/03 04:17:30;;;;;;;0.95;0.77;;;;;;;-0.48;100.00;94134.16;2093847;28;20020;-81
2024/02/03 04:18:31;;;;;;;0.70;0.70;;;;;;;-0.59;100.00;94139.03;2106159;28;20544;-83
2024/02/03 04:19:32;;;;;;;0.65;0.50;;;;;;;-0.70;100.00;94137.84;2103319;28;20097;-82
2024/02/03 04:20:33;;;;;;;1.02;0.70;;;;;;;-0.63;100.00;94136.25;2096833;28;20078;-82
2024/02/03 04:21:34;;;;;;;0.63;0.60;;;;;;;-0.63;100.00;94133.63;2097859;28;20103;-84
2024/02/03 04:22:35;;;;;;;0.60;0.57;;;;;;;-0.65;100.00;94140.31;2097161;28;20404;-84
2024/02/03 04:23:36;;;;;;;0.60;0.60;;;;;;;-0.67;100.00;94140.59;2094191;28;20044;-81
2024/02/03 04:24:37;;;;;;;0.70;0.70;;;;;;;-0.73;100.00;94138.50;2108999;28;20030;-82
2024/02/03 04:25:38;;;;;;;0.60;0.60;;;;;;;-0.64;100.00;94137.34;2108647;28;20059;-85
2024/02/03 04:26:39;;;;;;;0.77;0.77;;;;;;;-0.60;100.00;94134.88;2102995;28;20039;-83
2024/02/03 04:27:40;;;;;;;0.70;0.70;;;;;;;-0.69;100.00;94140.16;2100974;28;20028;-82
2024/02/03 04:28:41;;;;;;;0.80;0.80;;;;;;;-0.65;100.00;94135.06;2095397;28;20566;-83
2024/02/03 04:29:42;;;;;;;1.63;0.90;;;;;;;-0.56;100.00;94138.38;2095800;28;20551;-84
2024/02/03 04:30:43;;;;;;;0.73;0.73;;;;;;;-0.58;100.00;94141.31;2083741;28;20079;-82
2024/02/03 04:31:44;;;;;;;1.10;0.98;;;;;;;-0.57;100.00;94145.50;2100702;28;20131;-82
2024/02/03 04:32:45;;;;;;;1.02;0.93;;;;;;;-0.42;100.00;94135.50;2103790;28;20408;-82
2024/02/03 04:33:46;;;;;;;1.05;0.95;;;;;;;-0.45;100.00;94138.75;2087880;28;20029;-82
2024/02/03 04:34:47;;;;;;;2.10;0.82;;;;;;;-0.54;100.00;94134.34;2090781;28;20071;-83
2024/02/03 04:35:48;;;;;;;1.00;0.90;;;;;;;-0.51;100.00;94141.59;2103603;28;20044;-82
2024/02/03 04:36:49;;;;;;;0.80;0.80;;;;;;;-0.42;100.00;94132.88;2122660;27;20042;-84
2024/02/03 04:37:50;;;;;;;0.95;0.80;;;;;;;-0.57;100.00;94139.47;2110312;28;20097;-83
2024/02/03 04:38:51;;;;;;;0.80;0.80;;;;;;;-0.59;100.00;94133.78;2099401;28;20027;-83
2024/02/03 04:39:52;;;;;;;1.25;0.88;;;;;;;-0.54;100.00;94136.19;2095404;28;20020;-85
2024/02/03 04:40:53;;;;;;;1.35;1.00;;;;;;;-0.47;100.00;94135.69;2104508;28;20020;-83
2024/02/03 04:41:54;;;;;;;1.23;1.05;;;;;;;-0.47;100.00;94130.44;2104305;28;20030;-82
2024/02/03 04:42:55;;;;;;;2.35;1.00;;;;;;;-0.61;100.00;94135.97;2090059;28;20025;-83
2024/02/03 04:43:56;;;;;;;1.27;1.00;;;;;;;-0.52;100.00;94145.31;2092706;28;20568;-81
2024/02/03 04:44:57;;;;;;;0.80;0.80;;;;;;;-0.35;100.00;94126.03;2103836;28;20053;-83
2024/02/03 04:45:59;;;;;;;1.67;0.82;;;;;;;-0.28;100.00;94141.25;2095466;28;20020;-81
2024/02/03 04:47:00;;;;;;;1.27;0.98;;;;;;;-0.20;100.00;94132.53;2105075;27;20020;-83
2024/02/03 04:48:01;;;;;;;1.08;0.98;;;;;;;-0.35;100.00;94130.50;2103207;28;20034;-83